createdAt,value
2022-10-26T00:00:06.708Z,9.07
2022-10-26T00:02:33.131Z,7.20
2022-10-26T00:04:59.555Z,8.60
2022-10-26T00:07:25.975Z,6.38
2022-10-26T00:09:52.332Z,5.55
2022-10-26T00:12:18.721Z,4.75
2022-10-26T00:14:45.097Z,4.78
2022-10-26T00:17:11.489Z,6.28
2022-10-26T00:19:37.864Z,5.28
2022-10-26T00:22:04.243Z,5.13
2022-10-26T00:24:30.597Z,3.65
2022-10-26T00:26:56.994Z,4.80
2022-10-26T00:29:23.374Z,3.85
2022-10-26T00:31:49.772Z,4.70
2022-10-26T00:34:16.200Z,4.45
2022-10-26T00:36:42.696Z,6.47
2022-10-26T00:39:10.739Z,6.80
2022-10-26T00:41:37.140Z,5.80
2022-10-26T00:44:55.389Z,6.40
2022-10-26T00:47:41.797Z,6.22
2022-10-26T00:50:20.209Z,4.97
2022-10-26T00:52:47.203Z,7.03
2022-10-26T00:55:13.783Z,6.40
2022-10-26T00:57:40.239Z,4.90
2022-10-26T01:00:07.599Z,4.93
2022-10-26T01:02:34.104Z,4.90
2022-10-26T01:05:00.656Z,8.05
2022-10-26T01:07:27.015Z,5.68
2022-10-26T01:09:53.396Z,3.42
2022-10-26T01:12:19.757Z,7.05
2022-10-26T01:14:46.149Z,9.38
2022-10-26T01:17:25.850Z,6.85
2022-10-26T01:20:00.321Z,5.70
2022-10-26T01:22:39.339Z,5.50
2022-10-26T01:25:30.983Z,4.88
2022-10-26T01:27:57.352Z,4.85
2022-10-26T01:30:26.727Z,6.18
2022-10-26T01:33:16.613Z,9.13
2022-10-26T01:36:00.087Z,5.13
2022-10-26T01:38:32.404Z,4.57
2022-10-26T01:41:00.240Z,7.35
2022-10-26T01:43:27.946Z,5.40
2022-10-26T01:45:54.335Z,6.35
2022-10-26T01:48:20.705Z,5.25
2022-10-26T01:50:49.949Z,4.63
2022-10-26T01:53:16.371Z,5.32
2022-10-26T01:55:52.239Z,5.13
2022-10-26T01:58:27.267Z,6.97
2022-10-26T02:01:04.977Z,6.60
2022-10-26T02:03:45.202Z,5.93
2022-10-26T02:06:30.398Z,8.00
2022-10-26T02:09:19.464Z,6.07
2022-10-26T02:11:46.706Z,6.80
2022-10-26T02:14:18.665Z,7.60
2022-10-26T02:16:55.701Z,8.57
2022-10-26T02:19:37.614Z,4.57
2022-10-26T02:22:20.521Z,4.78
2022-10-26T02:24:47.373Z,6.53
2022-10-26T02:27:20.256Z,4.82
2022-10-26T02:29:46.657Z,5.65
2022-10-26T02:32:13.148Z,4.72
2022-10-26T02:34:39.537Z,5.07
2022-10-26T02:37:05.915Z,5.90
2022-10-26T02:39:32.873Z,7.13
2022-10-26T02:42:01.193Z,5.18
2022-10-26T02:44:28.781Z,8.77
2022-10-26T02:46:55.248Z,5.63
2022-10-26T02:49:21.696Z,5.35
2022-10-26T02:52:11.430Z,5.18
2022-10-26T02:55:23.351Z,4.97
2022-10-26T02:57:51.699Z,6.97
2022-10-26T03:00:18.221Z,7.03
2022-10-26T03:02:48.365Z,5.18
2022-10-26T03:05:20.505Z,8.30
2022-10-26T03:07:46.875Z,6.43
2022-10-26T03:10:13.268Z,6.10
2022-10-26T03:12:39.660Z,9.15
2022-10-26T03:15:06.455Z,5.22
2022-10-26T03:17:32.862Z,5.45
2022-10-26T03:19:59.269Z,9.30
2022-10-26T03:22:25.631Z,7.47
2022-10-26T03:24:52.015Z,5.50
2022-10-26T03:27:18.392Z,7.90
2022-10-26T03:29:44.816Z,4.75
2022-10-26T03:32:11.189Z,5.60
2022-10-26T03:34:37.556Z,6.65
2022-10-26T03:37:03.939Z,6.68
2022-10-26T03:39:30.344Z,5.68
2022-10-26T03:41:56.739Z,5.60
2022-10-26T03:44:23.167Z,7.10
2022-10-26T03:46:49.554Z,8.00
2022-10-26T03:49:15.924Z,7.43
2022-10-26T03:51:42.310Z,5.65
2022-10-26T03:54:08.775Z,4.82
2022-10-26T03:56:35.166Z,5.05
2022-10-26T03:59:01.534Z,5.20
2022-10-26T04:01:27.943Z,7.32
2022-10-26T04:03:54.381Z,6.32
2022-10-26T04:06:20.908Z,9.88
2022-10-26T04:08:47.284Z,6.00
2022-10-26T04:11:13.677Z,7.53
2022-10-26T04:13:40.035Z,6.45
2022-10-26T04:16:06.592Z,5.53
2022-10-26T04:18:32.963Z,6.78
2022-10-26T04:21:02.579Z,7.35
2022-10-26T04:23:28.972Z,6.18
2022-10-26T04:25:55.372Z,7.85
2022-10-26T04:28:21.755Z,8.85
2022-10-26T04:30:48.136Z,8.13
2022-10-26T04:33:14.567Z,8.13
2022-10-26T04:35:40.938Z,7.80
2022-10-26T04:38:07.359Z,7.63
2022-10-26T04:40:33.917Z,6.75
2022-10-26T04:43:00.312Z,8.05
2022-10-26T04:45:26.740Z,8.77
2022-10-26T04:48:05.590Z,7.88
2022-10-26T04:50:32.084Z,9.32
2022-10-26T04:52:58.504Z,6.15
2022-10-26T04:55:24.944Z,9.43
2022-10-26T04:57:53.822Z,7.63
2022-10-26T05:00:22.471Z,8.77
2022-10-26T05:02:48.957Z,7.30
2022-10-26T05:05:15.401Z,10.32
2022-10-26T05:07:41.815Z,7.68
2022-10-26T05:10:08.792Z,7.28
2022-10-26T05:12:35.231Z,7.32
2022-10-26T05:15:03.989Z,10.15
2022-10-26T05:17:32.879Z,9.13
2022-10-26T05:19:59.327Z,10.00
2022-10-26T05:22:25.733Z,11.15
2022-10-26T05:24:52.194Z,10.98
2022-10-26T05:27:18.599Z,10.80
2022-10-26T05:29:44.970Z,11.10
2022-10-26T05:32:11.382Z,11.93
2022-10-26T05:34:40.774Z,11.18
2022-10-26T05:37:07.976Z,9.10
2022-10-26T05:39:34.488Z,10.98
2022-10-26T05:42:00.870Z,11.65
2022-10-26T05:44:27.355Z,12.68
2022-10-26T05:46:53.825Z,12.57
2022-10-26T05:49:20.248Z,9.93
2022-10-26T05:51:46.743Z,11.65
2022-10-26T05:54:14.138Z,11.50
2022-10-26T05:56:41.041Z,11.65
2022-10-26T05:59:12.355Z,9.68
2022-10-26T06:02:00.583Z,9.70
2022-10-26T06:04:48.228Z,10.98
2022-10-26T06:07:16.211Z,8.85
2022-10-26T06:09:43.003Z,10.18
2022-10-26T06:12:10.702Z,12.35
2022-10-26T06:14:39.202Z,14.63
2022-10-26T06:17:17.583Z,9.88
2022-10-26T06:19:56.522Z,11.93
2022-10-26T06:22:34.824Z,10.45
2022-10-26T06:25:28.474Z,11.32
2022-10-26T06:28:02.225Z,10.98
2022-10-26T06:30:28.907Z,9.98
2022-10-26T06:33:05.816Z,13.45
2022-10-26T06:35:49.684Z,17.40
2022-10-26T06:38:19.769Z,12.70
2022-10-26T06:40:48.011Z,16.08
2022-10-26T06:43:26.751Z,14.57
2022-10-26T06:46:17.695Z,14.60
2022-10-26T06:48:56.107Z,12.98
2022-10-26T06:51:41.220Z,12.57
2022-10-26T06:54:18.778Z,11.80
2022-10-26T06:56:45.296Z,10.70
2022-10-26T06:59:18.388Z,13.95
2022-10-26T07:01:44.917Z,13.60
2022-10-26T07:04:11.328Z,10.32
2022-10-26T07:06:39.336Z,13.43
2022-10-26T07:09:06.035Z,11.15
2022-10-26T07:11:32.456Z,12.80
2022-10-26T07:13:58.852Z,14.05
2022-10-26T07:16:25.255Z,12.40
2022-10-26T07:18:51.671Z,14.68
2022-10-26T07:21:18.122Z,14.27
2022-10-26T07:23:44.479Z,14.20
2022-10-26T07:26:10.855Z,13.63
2022-10-26T07:28:38.527Z,13.07
2022-10-26T07:31:05.047Z,15.18
2022-10-26T07:33:31.520Z,12.65
2022-10-26T07:35:59.366Z,11.43
2022-10-26T07:38:25.832Z,11.93
2022-10-26T07:40:52.245Z,15.52
2022-10-26T07:43:18.720Z,16.20
2022-10-26T07:45:45.282Z,12.43
2022-10-26T07:48:11.673Z,14.80
2022-10-26T07:50:38.072Z,13.27
2022-10-26T07:53:04.519Z,14.85
2022-10-26T07:55:30.927Z,12.45
2022-10-26T07:57:58.074Z,11.80
2022-10-26T08:00:24.835Z,15.30
2022-10-26T08:02:51.576Z,14.80
2022-10-26T08:05:18.097Z,16.25
2022-10-26T08:07:44.861Z,11.70
2022-10-26T08:10:11.596Z,11.35
2022-10-26T08:12:38.120Z,11.65
2022-10-26T08:15:04.990Z,9.48
2022-10-26T08:17:31.433Z,14.00
2022-10-26T08:19:57.839Z,11.50
2022-10-26T08:22:24.304Z,11.05
2022-10-26T08:24:50.732Z,8.45
2022-10-26T08:27:17.138Z,10.70
2022-10-26T08:29:43.591Z,9.27
2022-10-26T08:32:10.009Z,10.95
2022-10-26T08:34:36.452Z,12.02
2022-10-26T08:37:03.900Z,9.13
2022-10-26T08:39:30.389Z,10.80
2022-10-26T08:42:19.192Z,9.82
2022-10-26T08:44:49.848Z,9.13
2022-10-26T08:47:21.353Z,8.88
2022-10-26T08:50:03.313Z,8.13
2022-10-26T08:52:42.065Z,9.55
2022-10-26T08:55:14.211Z,9.60
2022-10-26T08:57:40.901Z,10.27
2022-10-26T09:00:28.285Z,10.45
2022-10-26T09:06:03.800Z,8.30
2022-10-26T09:08:42.205Z,8.05
2022-10-26T09:11:19.176Z,7.82
2022-10-26T09:14:16.297Z,8.82
2022-10-26T09:16:54.770Z,10.70
2022-10-26T09:19:26.569Z,10.00
2022-10-26T09:22:13.095Z,9.18
2022-10-26T09:24:42.079Z,8.65
2022-10-26T09:27:27.437Z,11.45
2022-10-26T09:29:53.805Z,9.25
2022-10-26T09:32:25.508Z,8.20
2022-10-26T09:35:13.858Z,12.00
2022-10-26T09:37:42.252Z,10.70
2022-10-26T09:40:13.343Z,10.57
2022-10-26T09:42:45.551Z,12.15
2022-10-26T09:45:17.850Z,8.38
2022-10-26T09:47:46.766Z,11.90
2022-10-26T09:50:23.181Z,9.88
2022-10-26T09:52:49.813Z,7.90
2022-10-26T09:55:16.400Z,10.43
2022-10-26T09:57:45.159Z,6.85
2022-10-26T10:00:15.800Z,8.63
2022-10-26T10:02:46.076Z,8.52
2022-10-26T10:08:24.896Z,13.05
2022-10-26T10:11:14.016Z,6.40
2022-10-26T10:13:44.628Z,7.82
2022-10-26T10:16:19.924Z,10.27
2022-10-26T10:18:55.981Z,7.28
2022-10-26T10:21:40.587Z,10.15
2022-10-26T10:24:26.620Z,9.10
2022-10-26T10:27:14.448Z,7.38
2022-10-26T10:29:44.936Z,8.30
2022-10-26T10:32:15.791Z,7.93
2022-10-26T10:34:42.280Z,6.43
2022-10-26T10:37:36.774Z,9.05
2022-10-26T10:40:18.068Z,7.82
2022-10-26T10:42:45.359Z,7.95
2022-10-26T10:45:20.468Z,6.15
2022-10-26T10:47:59.336Z,6.55
2022-10-26T10:50:25.745Z,8.00
2022-10-26T10:52:52.513Z,7.47
2022-10-26T10:55:22.140Z,11.13
2022-10-26T10:58:04.012Z,9.43
2022-10-26T11:00:30.376Z,7.43
2022-10-26T11:02:59.753Z,8.73
2022-10-26T11:05:49.606Z,6.60
2022-10-26T11:08:26.843Z,7.43
2022-10-26T11:11:13.890Z,5.03
2022-10-26T11:13:51.407Z,7.15
2022-10-26T11:16:26.595Z,6.68
2022-10-26T11:18:57.059Z,6.25
2022-10-26T11:21:27.535Z,7.03
2022-10-26T11:24:19.604Z,5.68
2022-10-26T11:27:02.381Z,7.45
2022-10-26T11:29:36.541Z,7.53
2022-10-26T11:32:25.919Z,9.65
2022-10-26T11:35:14.951Z,10.20
2022-10-26T11:37:48.348Z,6.35
2022-10-26T11:40:34.107Z,7.18
2022-10-26T11:43:16.036Z,4.95
2022-10-26T11:45:44.621Z,7.00
2022-10-26T11:48:30.672Z,12.52
2022-10-26T11:50:57.536Z,4.65
2022-10-26T11:53:25.377Z,5.93
2022-10-26T11:55:54.884Z,9.00
2022-10-26T11:58:23.658Z,5.95
2022-10-26T12:00:55.335Z,6.30
2022-10-26T12:03:27.087Z,8.88
2022-10-26T12:05:53.596Z,6.55
2022-10-26T12:08:40.523Z,5.38
2022-10-26T12:11:24.892Z,6.97
2022-10-26T12:14:00.199Z,6.28
2022-10-26T12:16:56.327Z,4.90
2022-10-26T12:19:29.860Z,4.72
2022-10-26T12:21:56.293Z,5.93
2022-10-26T12:24:22.573Z,5.63
2022-10-26T12:27:05.514Z,4.22
2022-10-26T12:29:52.598Z,5.68
2022-10-26T12:32:28.047Z,6.60
2022-10-26T12:37:32.703Z,2.63
2022-10-26T12:40:27.004Z,5.45
2022-10-26T12:42:53.396Z,4.00
2022-10-26T12:45:20.622Z,4.30
2022-10-26T12:47:50.227Z,4.05
2022-10-26T12:50:23.911Z,8.07
2022-10-26T12:52:54.772Z,4.68
2022-10-26T12:55:45.871Z,7.72
2022-10-26T12:58:34.983Z,4.78
2022-10-26T13:01:01.243Z,3.67
2022-10-26T13:03:49.012Z,2.75
2022-10-26T13:06:31.715Z,3.22
2022-10-26T13:09:02.242Z,2.22
2022-10-26T13:11:35.081Z,6.07
2022-10-26T13:14:03.390Z,4.85
2022-10-26T13:16:29.902Z,6.45
2022-10-26T13:18:58.484Z,3.35
2022-10-26T13:21:25.045Z,4.50
2022-10-26T13:23:55.527Z,4.72
2022-10-26T13:26:27.738Z,3.05
2022-10-26T13:29:03.254Z,3.05
2022-10-26T13:31:29.573Z,2.80
2022-10-26T13:34:09.958Z,3.40
2022-10-26T13:36:36.337Z,3.42
2022-10-26T13:39:26.101Z,2.90
2022-10-26T13:41:53.708Z,3.17
2022-10-26T13:44:26.067Z,2.35
2022-10-26T13:46:56.643Z,3.20
2022-10-26T13:49:29.152Z,3.40
2022-10-26T13:51:55.607Z,3.03
2022-10-26T13:54:42.359Z,4.75
2022-10-26T13:57:40.430Z,3.97
2022-10-26T14:00:25.048Z,3.83
2022-10-26T14:02:51.650Z,2.83
2022-10-26T14:05:18.635Z,3.47
2022-10-26T14:07:56.851Z,7.05
2022-10-26T14:10:27.148Z,3.67
2022-10-26T14:12:53.893Z,1.92
2022-10-26T14:15:24.261Z,2.45
2022-10-26T14:17:51.387Z,3.67
2022-10-26T14:20:19.631Z,6.43
2022-10-26T14:22:46.057Z,4.18
2022-10-26T14:25:31.036Z,3.30
2022-10-26T14:28:25.689Z,2.38
2022-10-26T14:30:52.156Z,4.60
2022-10-26T14:33:27.602Z,7.35
2022-10-26T14:38:22.763Z,2.92
2022-10-26T14:40:50.394Z,1.35
2022-10-26T14:43:18.402Z,2.25
2022-10-26T14:45:49.673Z,3.60
2022-10-26T14:48:30.277Z,2.92
2022-10-26T14:51:00.908Z,3.72
2022-10-26T14:53:35.716Z,2.85
2022-10-26T14:56:03.770Z,1.88
2022-10-26T15:01:24.164Z,5.15
2022-10-26T15:04:01.623Z,4.55
2022-10-26T15:06:27.867Z,4.00
2022-10-26T15:08:57.695Z,2.25
2022-10-26T15:11:24.377Z,4.25
2022-10-26T15:13:50.790Z,2.30
2022-10-26T15:16:18.803Z,1.52
2022-10-26T15:18:50.235Z,2.22
2022-10-26T15:21:27.091Z,3.13
2022-10-26T15:23:53.839Z,3.72
2022-10-26T15:26:20.232Z,3.63
2022-10-26T15:28:46.667Z,3.00
2022-10-26T15:31:12.917Z,3.33
2022-10-26T15:33:49.088Z,3.38
2022-10-26T15:36:17.015Z,3.30
2022-10-26T15:38:43.685Z,1.92
2022-10-26T15:41:25.110Z,2.58
2022-10-26T15:43:51.995Z,1.92
2022-10-26T15:46:18.377Z,2.05
2022-10-26T15:51:14.926Z,3.28
2022-10-26T15:53:41.299Z,8.65
2022-10-26T15:56:15.908Z,8.02
2022-10-26T15:58:42.286Z,5.03
2022-10-26T16:01:18.671Z,2.13
2022-10-26T16:03:45.176Z,3.60
2022-10-26T16:06:23.583Z,5.07
2022-10-26T16:08:52.131Z,3.92
2022-10-26T16:11:18.672Z,5.05
2022-10-26T16:13:45.104Z,6.35
2022-10-26T16:16:18.300Z,3.80
2022-10-26T16:18:44.684Z,4.88
2022-10-26T16:21:15.649Z,4.38
2022-10-26T16:23:42.095Z,3.00
2022-10-26T16:26:08.491Z,4.15
2022-10-26T16:28:34.891Z,3.10
2022-10-26T16:31:04.769Z,3.47
2022-10-26T16:33:31.144Z,4.85
2022-10-26T16:35:57.949Z,3.75
2022-10-26T16:38:24.421Z,3.40
2022-10-26T16:40:50.922Z,3.35
2022-10-26T16:43:17.313Z,1.88
2022-10-26T16:45:43.949Z,6.10
2022-10-26T16:48:10.377Z,2.55
2022-10-26T16:50:36.821Z,5.38
2022-10-26T16:53:03.219Z,3.20
2022-10-26T16:55:29.593Z,2.53
2022-10-26T16:57:56.157Z,2.83
2022-10-26T17:00:22.554Z,3.47
2022-10-26T17:02:48.952Z,3.58
2022-10-26T17:05:15.417Z,2.75
2022-10-26T17:07:41.851Z,3.35
2022-10-26T17:10:08.540Z,5.13
2022-10-26T17:12:34.933Z,2.72
2022-10-26T17:15:02.233Z,4.20
2022-10-26T17:17:28.628Z,6.05
2022-10-26T17:19:55.002Z,3.60
2022-10-26T17:22:21.388Z,3.58
2022-10-26T17:24:50.592Z,3.63
2022-10-26T17:27:17.032Z,3.25
2022-10-26T17:29:44.290Z,4.40
2022-10-26T17:32:10.707Z,5.45
2022-10-26T17:34:37.104Z,3.83
2022-10-26T17:37:03.519Z,4.47
2022-10-26T17:39:29.916Z,3.47
2022-10-26T17:41:56.346Z,3.75
2022-10-26T17:44:22.739Z,5.32
2022-10-26T17:46:49.104Z,7.78
2022-10-26T17:49:16.615Z,3.15
2022-10-26T17:51:43.004Z,4.22
2022-10-26T17:54:09.510Z,3.42
2022-10-26T17:56:36.073Z,5.88
2022-10-26T17:59:04.924Z,2.63
2022-10-26T18:01:31.391Z,6.63
2022-10-26T18:03:58.001Z,4.30
2022-10-26T18:06:24.380Z,3.03
2022-10-26T18:08:52.484Z,4.97
2022-10-26T18:11:25.311Z,5.78
2022-10-26T18:13:53.370Z,4.45
2022-10-26T18:16:20.071Z,5.00
2022-10-26T18:18:46.689Z,4.88
2022-10-26T18:21:16.191Z,5.88
2022-10-26T18:23:42.645Z,3.28
2022-10-26T18:26:22.836Z,3.67
2022-10-26T18:28:52.012Z,4.75
2022-10-26T18:31:19.681Z,3.50
2022-10-26T18:33:46.263Z,6.55
2022-10-26T18:36:14.222Z,3.40
2022-10-26T18:38:40.664Z,3.78
2022-10-26T18:41:07.750Z,4.35
2022-10-26T18:43:34.188Z,5.50
2022-10-26T18:46:21.653Z,4.35
2022-10-26T18:48:48.123Z,3.60
2022-10-26T18:51:15.925Z,3.75
2022-10-26T18:53:42.863Z,4.03
2022-10-26T18:56:13.807Z,5.15
2022-10-26T18:58:42.515Z,3.88
2022-10-26T19:01:10.141Z,4.32
2022-10-26T19:03:36.740Z,4.65
2022-10-26T19:06:19.916Z,5.53
2022-10-26T19:08:46.422Z,7.25
2022-10-26T19:11:14.489Z,6.35
2022-10-26T19:13:40.963Z,2.83
2022-10-26T19:16:21.803Z,2.53
2022-10-26T19:18:59.851Z,4.80
2022-10-26T19:21:26.527Z,3.15
2022-10-26T19:23:54.231Z,2.85
2022-10-26T19:26:23.039Z,3.20
2022-10-26T19:28:58.465Z,5.38
2022-10-26T19:31:27.343Z,4.45
2022-10-26T19:33:55.078Z,5.68
2022-10-26T19:36:21.663Z,4.28
2022-10-26T19:38:48.265Z,4.45
2022-10-26T19:41:16.056Z,4.40
2022-10-26T19:43:42.941Z,4.68
2022-10-26T19:46:16.595Z,2.83
2022-10-26T19:48:48.616Z,5.40
2022-10-26T19:51:15.014Z,5.70
2022-10-26T19:53:41.445Z,4.90
2022-10-26T19:56:08.025Z,6.55
2022-10-26T19:58:34.564Z,3.92
2022-10-26T20:01:01.804Z,5.43
2022-10-26T20:03:28.857Z,6.18
2022-10-26T20:05:59.364Z,5.72
2022-10-26T20:08:25.881Z,4.70
2022-10-26T20:10:54.225Z,5.97
2022-10-26T20:13:21.071Z,5.50
2022-10-26T20:15:51.480Z,4.28
2022-10-26T20:18:18.447Z,4.28
2022-10-26T20:20:44.988Z,4.10
2022-10-26T20:23:11.848Z,3.95
2022-10-26T20:25:39.395Z,7.45
2022-10-26T20:28:06.113Z,3.90
2022-10-26T20:30:34.830Z,5.40
2022-10-26T20:33:03.248Z,4.88
2022-10-26T20:35:32.106Z,4.97
2022-10-26T20:37:58.769Z,4.75
2022-10-26T20:40:25.688Z,7.70
2022-10-26T20:42:52.262Z,8.65
2022-10-26T20:45:32.416Z,5.22
2022-10-26T20:48:01.913Z,4.72
2022-10-26T20:50:29.376Z,5.07
2022-10-26T20:53:27.006Z,3.28
2022-10-26T20:56:00.959Z,3.88
2022-10-26T20:58:44.797Z,5.95
2022-10-26T21:01:28.369Z,4.90
2022-10-26T21:03:55.673Z,8.00
2022-10-26T21:06:22.369Z,5.32
2022-10-26T21:08:49.318Z,5.95
2022-10-26T21:11:16.540Z,5.90
2022-10-26T21:13:46.839Z,6.13
2022-10-26T21:16:13.536Z,8.13
2022-10-26T21:18:40.053Z,5.28
2022-10-26T21:21:06.705Z,5.90
2022-10-26T21:23:34.000Z,5.30
2022-10-26T21:26:00.529Z,6.78
2022-10-26T21:28:27.848Z,6.47
2022-10-26T21:30:54.814Z,5.68
2022-10-26T21:33:24.091Z,4.85
2022-10-26T21:35:54.416Z,3.28
2022-10-26T21:38:20.868Z,4.18
2022-10-26T21:40:47.308Z,4.03
2022-10-26T21:43:13.693Z,4.13
2022-10-26T21:45:40.083Z,5.28
2022-10-26T21:48:06.526Z,5.95
2022-10-26T21:50:32.920Z,6.43
2022-10-26T21:52:59.358Z,5.03
2022-10-26T21:55:25.747Z,6.53
2022-10-26T21:57:52.810Z,6.13
2022-10-26T22:00:19.220Z,3.67
2022-10-26T22:02:45.629Z,5.95
2022-10-26T22:05:12.016Z,4.25
2022-10-26T22:07:38.446Z,6.40
2022-10-26T22:10:10.792Z,11.65
2022-10-26T22:12:37.739Z,6.57
2022-10-26T22:15:04.489Z,4.13
2022-10-26T22:17:30.933Z,8.15
2022-10-26T22:19:57.331Z,8.02
2022-10-26T22:22:23.739Z,6.95
2022-10-26T22:24:50.121Z,5.05
2022-10-26T22:27:16.554Z,4.80
2022-10-26T22:29:42.961Z,8.40
2022-10-26T22:32:09.407Z,5.50
2022-10-26T22:34:35.815Z,6.47
2022-10-26T22:37:02.307Z,7.10
2022-10-26T22:39:28.707Z,8.63
2022-10-26T22:41:55.113Z,8.02
2022-10-26T22:44:21.527Z,9.07
2022-10-26T22:46:47.916Z,7.10
2022-10-26T22:49:14.453Z,8.23
2022-10-26T22:51:40.844Z,8.45
2022-10-26T22:54:07.248Z,8.57
2022-10-26T22:56:34.455Z,9.23
2022-10-26T22:59:00.871Z,8.88
2022-10-26T23:01:29.143Z,6.78
2022-10-26T23:03:55.692Z,8.73
2022-10-26T23:06:22.273Z,7.15
2022-10-26T23:08:48.770Z,9.38
2022-10-26T23:11:16.557Z,7.70
2022-10-26T23:13:43.102Z,8.90
2022-10-26T23:16:18.361Z,6.75
2022-10-26T23:18:44.792Z,8.23
2022-10-26T23:21:11.591Z,10.52
2022-10-26T23:23:38.152Z,8.13
2022-10-26T23:26:06.012Z,10.07
2022-10-26T23:28:32.833Z,6.40
2022-10-26T23:30:59.257Z,7.85
2022-10-26T23:33:25.687Z,6.90
2022-10-26T23:35:52.263Z,8.43
2022-10-26T23:38:18.770Z,8.25
2022-10-26T23:40:52.062Z,6.47
2022-10-26T23:43:18.503Z,7.82
2022-10-26T23:45:44.948Z,7.90
2022-10-26T23:48:11.377Z,8.02
2022-10-26T23:50:37.793Z,7.90
2022-10-26T23:53:04.193Z,6.85
2022-10-26T23:55:30.608Z,8.73
2022-10-26T23:57:57.035Z,10.73
